createdAt,value
2023-04-18T00:01:27.591Z,102388.38
2023-04-18T00:03:54.156Z,102378.75
2023-04-18T00:06:22.125Z,102385.72
2023-04-18T00:08:49.119Z,102386.59
2023-04-18T00:11:15.679Z,102384.69
2023-04-18T00:13:42.243Z,102383.66
2023-04-18T00:16:08.888Z,102394.78
2023-04-18T00:18:36.833Z,102392.88
2023-04-18T00:21:04.324Z,102382.63
2023-04-18T00:23:31.249Z,102390.97
2023-04-18T00:25:57.949Z,102384.75
2023-04-18T00:28:24.727Z,102383.25
2023-04-18T00:30:51.504Z,102387.25
2023-04-18T00:33:18.365Z,102383.72
2023-04-18T00:35:45.231Z,102381.53
2023-04-18T00:38:11.936Z,102387.19
2023-04-18T00:40:38.832Z,102391.47
2023-04-18T00:43:08.003Z,102391.03
2023-04-18T00:45:35.142Z,102384.94
2023-04-18T00:48:02.147Z,102385.41
2023-04-18T00:50:28.941Z,102391.06
2023-04-18T00:52:56.751Z,102384.69
2023-04-18T00:55:24.200Z,102386.19
2023-04-18T00:57:51.686Z,102384.28
2023-04-18T01:00:18.646Z,102382.06
2023-04-18T01:02:49.662Z,102391.44
2023-04-18T01:05:18.163Z,102388.59
2023-04-18T01:07:45.417Z,102377.22
2023-04-18T01:10:12.242Z,102382.00
2023-04-18T01:12:40.729Z,102395.22
2023-04-18T01:15:07.920Z,102388.09
2023-04-18T01:17:35.450Z,102385.28
2023-04-18T01:20:05.417Z,102386.31
2023-04-18T01:22:33.001Z,102381.16
2023-04-18T01:24:59.700Z,102389.84
2023-04-18T01:27:26.439Z,102382.75
2023-04-18T01:29:53.499Z,102388.56
2023-04-18T01:32:20.471Z,102390.19
2023-04-18T01:34:47.557Z,102386.66
2023-04-18T01:37:14.376Z,102383.97
2023-04-18T01:39:41.060Z,102391.25
2023-04-18T01:42:07.762Z,102384.44
2023-04-18T01:44:34.507Z,102376.00
2023-04-18T01:47:01.392Z,102384.16
2023-04-18T01:49:28.158Z,102374.81
2023-04-18T01:51:54.856Z,102379.72
2023-04-18T01:54:21.787Z,102386.69
2023-04-18T01:56:48.518Z,102374.53
2023-04-18T01:59:15.289Z,102381.81
2023-04-18T02:01:42.691Z,102372.34
2023-04-18T02:04:09.469Z,102380.78
2023-04-18T02:06:36.453Z,102378.25
2023-04-18T02:09:03.124Z,102369.50
2023-04-18T02:11:29.989Z,102371.00
2023-04-18T02:13:56.627Z,102374.88
2023-04-18T02:16:23.374Z,102373.69
2023-04-18T02:18:52.727Z,102367.63
2023-04-18T02:21:19.421Z,102372.66
2023-04-18T02:23:46.125Z,102378.03
2023-04-18T02:26:12.801Z,102371.66
2023-04-18T02:28:39.630Z,102371.81
2023-04-18T02:31:07.223Z,102375.09
2023-04-18T02:33:33.929Z,102372.59
2023-04-18T02:36:01.627Z,102376.75
2023-04-18T02:38:28.359Z,102380.00
2023-04-18T02:40:55.925Z,102378.69
2023-04-18T02:43:22.611Z,102378.38
2023-04-18T02:45:49.417Z,102378.38
2023-04-18T02:48:16.125Z,102384.00
2023-04-18T02:50:42.827Z,102379.56
2023-04-18T02:53:09.536Z,102380.59
2023-04-18T02:55:37.093Z,102382.09
2023-04-18T02:58:03.780Z,102381.06
2023-04-18T03:00:30.518Z,102384.16
2023-04-18T03:02:57.313Z,102390.69
2023-04-18T03:05:24.060Z,102382.69
2023-04-18T03:07:50.787Z,102388.63
2023-04-18T03:10:18.107Z,102391.88
2023-04-18T03:12:44.806Z,102393.38
2023-04-18T03:15:11.737Z,102398.13
2023-04-18T03:17:39.191Z,102394.56
2023-04-18T03:20:06.560Z,102400.94
2023-04-18T03:22:33.254Z,102394.84
2023-04-18T03:25:00.666Z,102396.78
2023-04-18T03:27:27.374Z,102395.72
2023-04-18T03:29:54.088Z,102390.41
2023-04-18T03:32:20.947Z,102395.44
2023-04-18T03:34:48.451Z,102399.88
2023-04-18T03:37:15.191Z,102404.78
2023-04-18T03:39:44.421Z,102393.81
2023-04-18T03:42:11.138Z,102400.63
2023-04-18T03:44:37.809Z,102396.78
2023-04-18T03:47:05.304Z,102412.63
2023-04-18T03:49:32.155Z,102409.50
2023-04-18T03:51:58.881Z,102406.53
2023-04-18T03:54:25.600Z,102418.06
2023-04-18T03:56:52.594Z,102416.91
2023-04-18T03:59:19.341Z,102417.16
2023-04-18T04:01:46.170Z,102421.16
2023-04-18T04:04:15.248Z,102415.84
2023-04-18T04:06:42.340Z,102416.44
2023-04-18T04:09:09.088Z,102422.03
2023-04-18T04:11:36.011Z,102418.50
2023-04-18T04:14:02.660Z,102427.50
2023-04-18T04:16:29.975Z,102413.59
2023-04-18T04:18:56.709Z,102426.28
2023-04-18T04:21:23.475Z,102415.66
2023-04-18T04:23:50.438Z,102426.00
2023-04-18T04:26:17.113Z,102427.31
2023-04-18T04:28:46.363Z,102424.78
2023-04-18T04:31:13.067Z,102425.25
2023-04-18T04:33:41.248Z,102432.81
2023-04-18T04:36:08.894Z,102435.31
2023-04-18T04:38:38.369Z,102437.97
2023-04-18T04:41:09.501Z,102442.28
2023-04-18T04:43:36.381Z,102444.03
2023-04-18T04:46:04.132Z,102445.50
2023-04-18T04:48:31.308Z,102446.25
2023-04-18T04:50:59.666Z,102444.63
2023-04-18T04:53:33.203Z,102446.38
2023-04-18T04:55:59.893Z,102449.66
2023-04-18T04:58:27.022Z,102454.84
2023-04-18T05:00:54.014Z,102460.00
2023-04-18T05:03:21.100Z,102449.66
2023-04-18T05:05:48.273Z,102459.44
2023-04-18T05:08:15.012Z,102459.75
2023-04-18T05:10:43.114Z,102459.31
2023-04-18T05:13:09.885Z,102471.31
2023-04-18T05:15:36.607Z,102466.44
2023-04-18T05:18:03.436Z,102468.50
2023-04-18T05:20:30.233Z,102472.38
2023-04-18T05:22:56.974Z,102468.25
2023-04-18T05:25:23.926Z,102470.63
2023-04-18T05:27:50.966Z,102471.97
2023-04-18T05:30:17.869Z,102477.78
2023-04-18T05:32:44.592Z,102480.31
2023-04-18T05:35:11.358Z,102474.25
2023-04-18T05:37:38.032Z,102469.19
2023-04-18T05:40:05.781Z,102471.44
2023-04-18T05:42:32.693Z,102476.47
2023-04-18T05:44:59.471Z,102477.66
2023-04-18T05:47:28.401Z,102469.97
2023-04-18T05:49:55.610Z,102481.34
2023-04-18T05:52:22.590Z,102479.72
2023-04-18T05:54:49.308Z,102489.19
2023-04-18T05:57:16.026Z,102483.53
2023-04-18T05:59:42.949Z,102490.50
2023-04-18T06:02:13.335Z,102482.50
2023-04-18T06:04:44.948Z,102485.00
2023-04-18T06:07:12.011Z,102486.91
2023-04-18T06:09:38.810Z,102484.53
2023-04-18T06:12:05.742Z,102487.94
2023-04-18T06:14:32.442Z,102488.53
2023-04-18T06:16:59.316Z,102491.66
2023-04-18T06:19:26.075Z,102495.94
2023-04-18T06:21:53.089Z,102495.50
2023-04-18T06:24:19.792Z,102499.78
2023-04-18T06:26:46.483Z,102500.22
2023-04-18T06:29:13.175Z,102496.81
2023-04-18T06:32:01.212Z,102495.47
2023-04-18T06:41:28.463Z,102470.66
2023-04-18T06:44:03.389Z,102496.84
2023-04-18T06:46:31.418Z,102500.38
2023-04-18T06:48:58.270Z,102503.47
2023-04-18T06:51:24.841Z,102492.16
2023-04-18T06:53:53.625Z,102507.03
2023-04-18T06:56:20.567Z,102506.53
2023-04-18T06:58:47.749Z,102502.78
2023-04-18T07:01:14.376Z,102504.97
2023-04-18T07:03:41.002Z,102508.34
2023-04-18T07:06:08.830Z,102504.31
2023-04-18T07:08:35.880Z,102502.84
2023-04-18T07:11:02.450Z,102497.28
2023-04-18T07:13:29.003Z,102493.81
2023-04-18T07:15:55.588Z,102501.31
2023-04-18T07:18:34.224Z,102505.50
2023-04-18T07:21:03.659Z,102503.22
2023-04-18T07:23:30.142Z,102505.28
2023-04-18T07:25:58.574Z,102505.03
2023-04-18T07:28:25.290Z,102495.03
2023-04-18T07:30:51.861Z,102492.38
2023-04-18T07:33:18.355Z,102496.03
2023-04-18T07:35:46.555Z,102499.34
2023-04-18T07:38:13.144Z,102497.75
2023-04-18T07:40:39.650Z,102498.81
2023-04-18T07:43:06.120Z,102485.44
2023-04-18T07:45:35.627Z,102487.13
2023-04-18T07:48:02.442Z,102493.22
2023-04-18T07:50:28.925Z,102487.41
2023-04-18T07:52:55.608Z,102492.25
2023-04-18T07:55:22.077Z,102485.41
2023-04-18T07:57:50.389Z,102494.16
2023-04-18T08:00:18.110Z,102485.56
2023-04-18T08:02:44.772Z,102487.97
2023-04-18T08:05:11.985Z,102487.25
2023-04-18T08:07:38.569Z,102491.13
2023-04-18T08:10:05.524Z,102491.50
2023-04-18T08:12:32.058Z,102492.38
2023-04-18T08:14:58.573Z,102496.72
2023-04-18T08:17:25.171Z,102494.31
2023-04-18T08:19:51.734Z,102491.91
2023-04-18T08:22:18.239Z,102490.25
2023-04-18T08:25:01.095Z,102485.94
2023-04-18T08:27:31.336Z,102488.19
2023-04-18T08:29:58.118Z,102492.13
2023-04-18T08:32:24.713Z,102491.19
2023-04-18T08:34:51.443Z,102498.19
2023-04-18T08:37:18.251Z,102494.38
2023-04-18T08:39:45.113Z,102496.41
2023-04-18T08:42:16.245Z,102487.50
2023-04-18T08:44:43.041Z,102506.13
2023-04-18T08:47:10.675Z,102491.00
2023-04-18T08:49:38.106Z,102499.44
2023-04-18T08:52:11.116Z,102493.56
2023-04-18T08:54:41.921Z,102494.91
2023-04-18T08:57:12.349Z,102501.34
2023-04-18T08:59:40.008Z,102495.03
2023-04-18T09:02:08.864Z,102505.19
2023-04-18T09:04:41.022Z,102511.91
2023-04-18T09:07:10.601Z,102512.84
2023-04-18T09:09:45.408Z,102512.81
2023-04-18T09:12:14.586Z,102521.81
2023-04-18T09:14:48.458Z,102523.63
2023-04-18T09:17:21.459Z,102510.59
2023-04-18T09:19:48.949Z,102519.72
2023-04-18T09:22:17.860Z,102509.31
2023-04-18T09:24:53.132Z,102518.44
2023-04-18T09:27:22.280Z,102521.53
2023-04-18T09:29:54.762Z,102519.75
2023-04-18T09:32:29.630Z,102513.53
2023-04-18T09:35:03.981Z,102517.47
2023-04-18T09:37:31.510Z,102516.56
2023-04-18T09:39:58.205Z,102514.03
2023-04-18T09:42:27.492Z,102513.13
2023-04-18T09:44:59.799Z,102519.25
2023-04-18T09:47:28.005Z,102519.50
2023-04-18T09:49:55.446Z,102524.84
2023-04-18T09:52:25.067Z,102515.56
2023-04-18T09:55:01.565Z,102520.63
2023-04-18T09:57:30.879Z,102536.22
2023-04-18T10:00:14.113Z,102523.03
2023-04-18T10:02:56.643Z,102526.50
2023-04-18T10:05:30.733Z,102521.78
2023-04-18T10:07:57.882Z,102511.66
2023-04-18T10:10:24.786Z,102508.75
2023-04-18T10:12:54.784Z,102516.09
2023-04-18T10:15:24.081Z,102498.81
2023-04-18T10:18:04.616Z,102513.78
2023-04-18T10:20:34.967Z,102512.88
2023-04-18T10:23:36.988Z,102512.88
2023-04-18T10:26:05.459Z,102511.09
2023-04-18T10:28:58.221Z,102516.16
2023-04-18T10:31:27.173Z,102515.84
2023-04-18T10:34:04.548Z,102524.22
2023-04-18T10:36:32.939Z,102511.53
2023-04-18T10:39:21.091Z,102508.34
2023-04-18T10:41:50.634Z,102513.78
2023-04-18T10:44:22.867Z,102515.19
2023-04-18T10:46:53.126Z,102506.69
2023-04-18T10:49:23.377Z,102503.25
2023-04-18T10:51:54.245Z,102497.47
2023-04-18T10:54:46.455Z,102495.25
2023-04-18T10:57:13.848Z,102502.19
2023-04-18T10:59:48.019Z,102498.47
2023-04-18T11:02:25.392Z,102500.88
2023-04-18T11:04:57.030Z,102508.47
2023-04-18T11:07:35.765Z,102501.22
2023-04-18T11:10:03.651Z,102491.41
2023-04-18T11:12:36.251Z,102496.19
2023-04-18T11:15:09.525Z,102492.81
2023-04-18T11:17:36.278Z,102487.28
2023-04-18T11:20:09.123Z,102498.16
2023-04-18T11:22:47.235Z,102491.75
2023-04-18T11:25:15.311Z,102489.13
2023-04-18T11:27:47.304Z,102493.03
2023-04-18T11:30:15.131Z,102493.94
2023-04-18T11:32:41.996Z,102486.63
2023-04-18T11:35:10.482Z,102493.34
2023-04-18T11:37:38.290Z,102496.00
2023-04-18T11:40:08.777Z,102484.97
2023-04-18T11:42:37.340Z,102487.91
2023-04-18T11:45:08.563Z,102489.00
2023-04-18T11:47:35.337Z,102485.03
2023-04-18T11:50:07.170Z,102478.22
2023-04-18T11:52:35.198Z,102484.78
2023-04-18T11:55:17.292Z,102487.97
2023-04-18T11:58:00.316Z,102489.03
2023-04-18T12:00:34.939Z,102498.84
2023-04-18T12:03:07.779Z,102493.00
2023-04-18T12:05:36.813Z,102490.34
2023-04-18T12:08:13.181Z,102485.63
2023-04-18T12:10:51.365Z,102486.81
2023-04-18T12:13:19.303Z,102490.59
2023-04-18T12:15:46.741Z,102488.59
2023-04-18T12:18:15.348Z,102487.84
2023-04-18T12:20:50.372Z,102485.38
2023-04-18T12:23:34.276Z,102482.56
2023-04-18T12:26:02.593Z,102480.78
2023-04-18T12:28:29.715Z,102482.00
2023-04-18T12:30:56.452Z,102479.03
2023-04-18T12:33:23.425Z,102477.34
2023-04-18T12:35:52.178Z,102477.16
2023-04-18T12:38:23.210Z,102487.34
2023-04-18T12:40:51.386Z,102473.88
2023-04-18T12:43:18.574Z,102480.28
2023-04-18T12:45:46.512Z,102473.66
2023-04-18T12:48:23.827Z,102465.69
2023-04-18T12:50:50.774Z,102466.03
2023-04-18T12:53:17.559Z,102461.81
2023-04-18T12:55:44.306Z,102466.78
2023-04-18T12:58:11.009Z,102466.25
2023-04-18T13:00:39.686Z,102461.91
2023-04-18T13:03:06.700Z,102461.16
2023-04-18T13:05:34.282Z,102456.50
2023-04-18T13:10:31.369Z,102458.59
2023-04-18T13:12:58.273Z,102463.00
2023-04-18T13:15:26.022Z,102445.00
2023-04-18T13:17:52.805Z,102452.53
2023-04-18T13:20:19.554Z,102446.41
2023-04-18T13:22:46.313Z,102448.03
2023-04-18T13:25:13.253Z,102455.88
2023-04-18T13:27:42.005Z,102457.13
2023-04-18T13:30:10.997Z,102453.69
2023-04-18T13:32:39.100Z,102458.34
2023-04-18T13:35:09.095Z,102458.88
2023-04-18T13:37:36.614Z,102451.13
2023-04-18T13:40:07.734Z,102447.50
2023-04-18T13:42:35.979Z,102451.78
2023-04-18T13:45:03.212Z,102453.56
2023-04-18T13:47:30.300Z,102450.34
2023-04-18T13:49:57.665Z,102440.94
2023-04-18T13:52:24.877Z,102445.03
2023-04-18T13:54:51.540Z,102439.78
2023-04-18T13:57:18.355Z,102439.53
2023-04-18T13:59:45.079Z,102447.16
2023-04-18T14:02:12.276Z,102447.66
2023-04-18T14:04:39.159Z,102447.09
2023-04-18T14:07:09.000Z,102436.78
2023-04-18T14:09:35.714Z,102439.75
2023-04-18T14:12:02.505Z,102434.19
2023-04-18T14:14:29.504Z,102434.38
2023-04-18T14:16:56.221Z,102426.78
2023-04-18T14:19:23.002Z,102438.25
2023-04-18T14:21:49.717Z,102437.97
2023-04-18T14:24:16.494Z,102440.41
2023-04-18T14:26:43.900Z,102433.13
2023-04-18T14:29:11.006Z,102437.91
2023-04-18T14:31:37.830Z,102447.13
2023-04-18T14:34:05.547Z,102444.25
2023-04-18T14:36:32.606Z,102441.94
2023-04-18T14:38:59.340Z,102434.06
2023-04-18T14:41:26.126Z,102432.13
2023-04-18T14:43:52.989Z,102440.75
2023-04-18T14:46:21.051Z,102440.75
2023-04-18T14:48:47.871Z,102434.38
2023-04-18T14:51:16.384Z,102439.81
2023-04-18T14:53:43.411Z,102437.50
2023-04-18T14:56:10.156Z,102443.06
2023-04-18T14:58:36.832Z,102446.06
2023-04-18T15:01:04.274Z,102439.97
2023-04-18T15:03:31.347Z,102439.56
2023-04-18T15:05:58.285Z,102431.25
2023-04-18T15:08:25.245Z,102435.78
2023-04-18T15:10:54.659Z,102442.09
2023-04-18T15:13:21.324Z,102437.66
2023-04-18T15:15:54.987Z,102437.88
2023-04-18T15:18:22.035Z,102434.66
2023-04-18T15:20:48.824Z,102436.44
2023-04-18T15:23:16.067Z,102431.44
2023-04-18T15:25:44.761Z,102439.75
2023-04-18T15:28:14.325Z,102430.78
2023-04-18T15:30:41.111Z,102429.25
2023-04-18T15:33:08.310Z,102431.34
2023-04-18T15:35:35.785Z,102433.53
2023-04-18T15:38:02.994Z,102437.38
2023-04-18T15:40:30.192Z,102436.16
2023-04-18T15:42:59.283Z,102439.78
2023-04-18T15:45:25.948Z,102444.09
2023-04-18T15:47:52.790Z,102435.28
2023-04-18T15:50:19.742Z,102436.22
2023-04-18T15:52:46.610Z,102440.88
2023-04-18T15:55:13.709Z,102434.22
2023-04-18T15:57:41.670Z,102434.13
2023-04-18T16:00:20.878Z,102433.25
2023-04-18T16:02:49.532Z,102431.13
2023-04-18T16:05:17.384Z,102436.16
2023-04-18T16:07:44.326Z,102434.38
2023-04-18T16:10:12.578Z,102437.47
2023-04-18T16:12:39.751Z,102447.00
2023-04-18T16:15:10.504Z,102439.00
2023-04-18T16:17:38.385Z,102446.09
2023-04-18T16:20:09.012Z,102442.88
2023-04-18T16:22:36.565Z,102435.53
2023-04-18T16:25:04.392Z,102433.00
2023-04-18T16:27:32.921Z,102440.75
2023-04-18T16:29:59.710Z,102432.31
2023-04-18T16:32:26.846Z,102432.72
2023-04-18T16:34:53.588Z,102434.16
2023-04-18T16:37:20.259Z,102437.69
2023-04-18T16:39:48.363Z,102436.34
2023-04-18T16:42:16.442Z,102434.47
2023-04-18T16:44:45.069Z,102435.94
2023-04-18T16:47:11.778Z,102436.84
2023-04-18T16:49:38.538Z,102444.53
2023-04-18T16:52:05.310Z,102439.88
2023-04-18T16:54:32.058Z,102440.69
2023-04-18T16:56:58.781Z,102444.66
2023-04-18T16:59:25.965Z,102437.59
2023-04-18T17:01:52.788Z,102443.78
2023-04-18T17:04:19.405Z,102446.09
2023-04-18T17:06:46.621Z,102454.41
2023-04-18T17:09:14.552Z,102453.91
2023-04-18T17:11:41.847Z,102443.28
2023-04-18T17:14:09.349Z,102449.03
2023-04-18T17:16:38.450Z,102453.13
2023-04-18T17:19:05.694Z,102448.53
2023-04-18T17:21:32.966Z,102454.72
2023-04-18T17:24:03.364Z,102454.72
2023-04-18T17:26:30.786Z,102464.91
2023-04-18T17:28:57.761Z,102457.38
2023-04-18T17:31:24.488Z,102459.25
2023-04-18T17:33:51.257Z,102456.38
2023-04-18T17:36:17.920Z,102464.66
2023-04-18T17:38:48.783Z,102469.88
2023-04-18T17:41:20.167Z,102465.66
2023-04-18T17:43:47.685Z,102462.91
2023-04-18T17:46:14.771Z,102463.34
2023-04-18T17:48:41.571Z,102471.53
2023-04-18T17:51:08.278Z,102471.13
2023-04-18T17:53:34.975Z,102471.00
2023-04-18T17:56:03.560Z,102469.78
2023-04-18T17:58:30.414Z,102472.88
2023-04-18T18:00:57.289Z,102475.28
2023-04-18T18:03:24.234Z,102478.28
2023-04-18T18:05:51.774Z,102475.50
2023-04-18T18:08:18.557Z,102477.69
2023-04-18T18:10:46.985Z,102479.25
2023-04-18T18:13:13.702Z,102482.78
2023-04-18T18:15:40.540Z,102487.44
2023-04-18T18:18:07.379Z,102485.44
2023-04-18T18:20:34.098Z,102486.97
2023-04-18T18:23:01.569Z,102489.28
2023-04-18T18:25:28.635Z,102487.41
2023-04-18T18:27:55.386Z,102491.38
2023-04-18T18:30:22.143Z,102491.78
2023-04-18T18:32:49.441Z,102497.31
2023-04-18T18:35:16.202Z,102496.19
2023-04-18T18:37:42.877Z,102499.34
2023-04-18T18:40:10.028Z,102500.69
2023-04-18T18:42:36.756Z,102508.81
2023-04-18T18:45:03.947Z,102505.28
2023-04-18T18:47:30.909Z,102512.56
2023-04-18T18:49:57.672Z,102515.50
2023-04-18T18:52:24.737Z,102509.97
2023-04-18T18:54:51.416Z,102510.25
2023-04-18T18:57:18.217Z,102515.09
2023-04-18T18:59:45.016Z,102521.22
2023-04-18T19:02:11.928Z,102521.78
2023-04-18T19:04:38.811Z,102529.78
2023-04-18T19:07:06.128Z,102534.50
2023-04-18T19:09:33.276Z,102535.91
2023-04-18T19:12:00.906Z,102533.78
2023-04-18T19:14:27.586Z,102537.34
2023-04-18T19:16:55.783Z,102539.31
2023-04-18T19:19:22.483Z,102550.31
2023-04-18T19:21:49.963Z,102547.41
2023-04-18T19:24:17.676Z,102544.53
2023-04-18T19:26:44.360Z,102549.97
2023-04-18T19:29:14.004Z,102549.50
2023-04-18T19:31:43.373Z,102545.97
2023-04-18T19:34:10.836Z,102555.09
2023-04-18T19:36:38.214Z,102559.00
2023-04-18T19:39:04.995Z,102557.91
2023-04-18T19:41:31.676Z,102559.28
2023-04-18T19:43:58.466Z,102558.03
2023-04-18T19:46:24.991Z,102563.59
2023-04-18T19:48:51.534Z,102564.13
2023-04-18T19:51:18.100Z,102568.16
2023-04-18T19:53:44.666Z,102563.59
2023-04-18T19:56:13.532Z,102565.13
2023-04-18T19:58:45.008Z,102567.41
2023-04-18T20:01:16.202Z,102570.97
2023-04-18T20:03:42.929Z,102563.88
2023-04-18T20:06:09.898Z,102561.84
2023-04-18T20:08:38.098Z,102567.56
2023-04-18T20:11:07.778Z,102569.69
2023-04-18T20:13:36.269Z,102571.22
2023-04-18T20:16:07.460Z,102567.78
2023-04-18T20:18:35.876Z,102564.22
2023-04-18T20:21:02.973Z,102565.63
2023-04-18T20:23:29.456Z,102569.53
2023-04-18T20:25:55.910Z,102562.59
2023-04-18T20:28:22.780Z,102564.88
2023-04-18T20:30:49.553Z,102566.84
2023-04-18T20:33:16.328Z,102563.03
2023-04-18T20:35:44.325Z,102561.88
2023-04-18T20:38:12.235Z,102559.22
2023-04-18T20:40:39.612Z,102558.97
2023-04-18T20:43:07.984Z,102567.94
2023-04-18T20:45:37.330Z,102565.00
2023-04-18T20:48:04.723Z,102567.16
2023-04-18T20:50:31.456Z,102561.69
2023-04-18T20:53:00.285Z,102565.75
2023-04-18T20:55:27.202Z,102569.78
2023-04-18T20:57:53.996Z,102567.78
2023-04-18T21:00:20.679Z,102566.59
2023-04-18T21:02:47.455Z,102570.41
2023-04-18T21:05:14.286Z,102579.63
2023-04-18T21:07:41.007Z,102575.94
2023-04-18T21:10:07.993Z,102584.28
2023-04-18T21:12:37.883Z,102587.44
2023-04-18T21:15:05.432Z,102582.25
2023-04-18T21:17:32.357Z,102581.09
2023-04-18T21:23:25.197Z,102598.41
2023-04-18T21:25:51.837Z,102597.22
2023-04-18T21:28:19.040Z,102594.31
2023-04-18T21:30:46.734Z,102593.16
2023-04-18T21:33:13.563Z,102586.06
2023-04-18T21:35:40.355Z,102594.88
2023-04-18T21:38:07.023Z,102594.47
2023-04-18T21:40:33.697Z,102583.94
2023-04-18T21:43:00.398Z,102594.03
2023-04-18T21:45:27.159Z,102582.53
2023-04-18T21:47:53.868Z,102596.94
2023-04-18T21:50:20.730Z,102590.72
2023-04-18T21:52:47.477Z,102592.22
2023-04-18T21:55:14.232Z,102596.84
2023-04-18T21:57:41.062Z,102595.09
2023-04-18T22:00:10.523Z,102590.50
2023-04-18T22:02:39.258Z,102590.97
2023-04-18T22:05:08.703Z,102581.34
2023-04-18T22:07:43.278Z,102585.41
2023-04-18T22:10:13.291Z,102591.03
2023-04-18T22:12:39.971Z,102592.41
2023-04-18T22:15:07.155Z,102591.25
2023-04-18T22:17:34.918Z,102591.88
2023-04-18T22:20:04.552Z,102578.41
2023-04-18T22:22:31.474Z,102592.53
2023-04-18T22:24:58.211Z,102588.81
2023-04-18T22:27:24.964Z,102584.13
2023-04-18T22:29:51.630Z,102583.84
2023-04-18T22:32:18.318Z,102590.25
2023-04-18T22:34:45.004Z,102586.28
2023-04-18T22:37:11.688Z,102587.75
2023-04-18T22:39:38.382Z,102589.00
2023-04-18T22:42:05.042Z,102585.28
2023-04-18T22:44:31.736Z,102591.72
2023-04-18T22:46:58.399Z,102590.38
2023-04-18T22:49:25.211Z,102592.78
2023-04-18T22:51:54.302Z,102593.06
2023-04-18T22:54:21.143Z,102578.28
2023-04-18T22:56:50.812Z,102584.66
2023-04-18T22:59:17.754Z,102589.44
2023-04-18T23:01:44.553Z,102588.41
2023-04-18T23:04:11.536Z,102598.50
2023-04-18T23:06:38.748Z,102589.13
2023-04-18T23:09:06.940Z,102585.44
2023-04-18T23:11:33.621Z,102586.78
2023-04-18T23:14:00.505Z,102587.84
2023-04-18T23:16:28.061Z,102581.75
2023-04-18T23:18:54.849Z,102583.69
2023-04-18T23:21:21.569Z,102586.22
2023-04-18T23:23:48.269Z,102583.56
2023-04-18T23:26:15.634Z,102585.06
2023-04-18T23:28:42.426Z,102587.41
2023-04-18T23:31:09.227Z,102588.88
2023-04-18T23:33:36.417Z,102588.59
2023-04-18T23:36:03.303Z,102591.84
2023-04-18T23:38:30.621Z,102583.72
2023-04-18T23:40:57.325Z,102588.91
2023-04-18T23:43:24.054Z,102592.91
2023-04-18T23:45:50.734Z,102591.88
2023-04-18T23:48:17.391Z,102591.59
2023-04-18T23:50:48.642Z,102593.69
2023-04-18T23:53:19.624Z,102579.31
2023-04-18T23:55:48.384Z,102573.22
2023-04-18T23:58:16.870Z,102575.31
